Overton, Texas
Current Conditions -  °F | °C
As of 4:35 AM on Thursday 18 Dec 2014 (Local Time) from KRFI Reporting Station
Overcast Overcast  
Wind Chill: 41°   Ceiling: 300
Heat Index: 44°   Visibility: 7mi
Dew Point: 44°   Wind: 6mph
Humidity: 99%   Direction: 40°NE
Pressure: 30.14"   Gusts: NA
Location:  32.27°N, 94.98°W
Report Text: KRFI 181035Z AUTO 04005KT 7SM OVC003 07/07 A3014 RMK AO2 T00660065
Loading
Personal Weather Stations






























Interactive Weather Map New forecast layout! Learn more

10-Day Weather Forecast

Advertisements
Track Severe Weather on mobile